TimeEST,TemperatureF,Dew PointF,Humidity,Sea Level PressureIn,VisibilityMPH,Wind Direction,Wind SpeedMPH,Gust SpeedMPH,PrecipitationIn,Events,Conditions,WindDirDegrees,DateUTC
12:54 AM,46.0,26.1,46,30.06,10.0,WSW,9.2,-,N/A,,Overcast,240,2013-01-01 05:54:00
1:54 AM,46.0,27.0,47,30.06,10.0,SW,8.1,-,N/A,,Overcast,220,2013-01-01 06:54:00
2:54 AM,43.0,28.9,58,30.03,10.0,South,5.8,-,N/A,,Overcast,190,2013-01-01 07:54:00
3:54 AM,44.1,28.0,53,30.02,10.0,SW,3.5,-,N/A,,Overcast,220,2013-01-01 08:54:00
4:54 AM,45.0,28.9,53,30.01,10.0,SW,8.1,-,N/A,,Overcast,220,2013-01-01 09:54:00
5:54 AM,45.0,30.0,56,30.03,10.0,SW,9.2,-,N/A,,Overcast,230,2013-01-01 10:54:00
6:54 AM,43.0,34.0,71,30.03,10.0,SW,4.6,-,0.00,Rain,Light Rain,220,2013-01-01 11:54:00
7:54 AM,41.0,37.0,86,30.02,10.0,South,4.6,-,0.02,Rain,Light Rain,190,2013-01-01 12:54:00
8:54 AM,41.0,37.0,86,30.00,9.0,South,4.6,-,0.01,Rain,Light Rain,180,2013-01-01 13:54:00
9:54 AM,42.1,37.9,85,30.02,10.0,SSW,8.1,-,0.00,,Overcast,200,2013-01-01 14:54:00
10:54 AM,43.0,37.9,82,30.02,10.0,SW,5.8,-,N/A,,Overcast,220,2013-01-01 15:54:00
11:54 AM,44.1,37.0,76,30.00,10.0,WSW,6.9,-,N/A,,Overcast,240,2013-01-01 16:54:00
12:54 PM,45.0,37.0,74,29.96,10.0,SW,5.8,-,N/A,,Overcast,220,2013-01-01 17:54:00
1:54 PM,46.0,37.0,71,29.95,10.0,SW,6.9,-,N/A,,Overcast,220,2013-01-01 18:54:00
2:54 PM,46.9,37.0,68,29.92,10.0,SW,5.8,-,N/A,,Overcast,230,2013-01-01 19:54:00
3:54 PM,46.9,37.9,71,29.96,10.0,West,3.5,-,N/A,,Overcast,270,2013-01-01 20:54:00
4:54 PM,46.9,37.9,71,29.96,10.0,Calm,Calm,-,N/A,,Overcast,0,2013-01-01 21:54:00
5:54 PM,46.0,39.0,76,29.98,10.0,Calm,Calm,-,N/A,,Overcast,0,2013-01-01 22:54:00
6:54 PM,45.0,39.9,82,29.99,10.0,Calm,Calm,-,N/A,,Overcast,0,2013-01-01 23:54:00
7:54 PM,45.0,39.9,82,29.98,10.0,Calm,Calm,-,N/A,,Overcast,0,2013-01-02 00:54:00
8:54 PM,44.1,39.9,85,29.99,10.0,North,3.5,-,0.00,Rain,Light Rain,10,2013-01-02 01:54:00
9:54 PM,42.1,39.0,89,30.01,7.0,NNE,9.2,-,0.04,Rain,Light Rain,30,2013-01-02 02:54:00
10:54 PM,39.9,37.0,89,30.03,9.0,ENE,5.8,-,0.04,Rain,Light Rain,60,2013-01-02 03:54:00
11:25 PM,39.2,37.4,93,30.01,9.0,NE,3.5,-,0.02,Rain,Light Rain,50,2013-01-02 04:25:00
11:54 PM,39.9,37.0,89,30.03,7.0,NNE,4.6,-,0.04,Rain,Light Rain,30,2013-01-02 04:54:00